createdAt,value
2018-12-26T00:01:44.284Z,102040.28
2018-12-26T00:04:14.245Z,102052.93
2018-12-26T00:06:44.219Z,102059.86
2018-12-26T00:09:13.944Z,102057.37
2018-12-26T00:11:43.943Z,102045.48
2018-12-26T00:14:13.951Z,102055.61
2018-12-26T00:16:44.242Z,102055.61
2018-12-26T00:19:14.436Z,102057.34
2018-12-26T00:21:43.996Z,102059.99
2018-12-26T00:24:14.105Z,102059.12
2018-12-26T00:26:44.038Z,102052.10
2018-12-26T00:29:14.633Z,102056.06
2018-12-26T00:31:44.139Z,102046.86
2018-12-26T00:34:14.587Z,102047.34
2018-12-26T00:36:44.081Z,102049.03
2018-12-26T00:39:14.175Z,102039.38
2018-12-26T00:41:44.932Z,102056.03
2018-12-26T00:44:14.727Z,102049.09
2018-12-26T00:46:44.509Z,102053.00
2018-12-26T00:49:14.331Z,102061.30
2018-12-26T00:51:44.168Z,102061.30
2018-12-26T00:54:14.189Z,102025.62
2018-12-26T00:56:44.336Z,102057.41
2018-12-26T00:59:14.458Z,102052.58
2018-12-26T01:01:44.329Z,102026.77
2018-12-26T01:04:14.388Z,102026.77
2018-12-26T01:06:44.889Z,102032.97
2018-12-26T01:09:14.679Z,102040.83
2018-12-26T01:11:44.533Z,102031.27
2018-12-26T01:14:14.381Z,102019.39
2018-12-26T01:16:44.284Z,102019.01
2018-12-26T01:19:14.346Z,102008.98
2018-12-26T01:21:44.604Z,102014.22
2018-12-26T01:24:14.576Z,101996.81
2018-12-26T01:26:44.533Z,102010.77
2018-12-26T01:29:14.392Z,102017.38
2018-12-26T01:31:44.649Z,102012.11
2018-12-26T01:34:14.448Z,102012.94
2018-12-26T01:36:44.951Z,102009.45
2018-12-26T01:39:14.487Z,102001.60
2018-12-26T01:41:44.635Z,101998.53
2018-12-26T01:44:14.427Z,101996.33
2018-12-26T01:46:44.708Z,101995.47
2018-12-26T01:49:14.474Z,102013.35
2018-12-26T01:51:44.623Z,102012.55
2018-12-26T01:54:15.422Z,102012.58
2018-12-26T01:56:45.146Z,102005.63
2018-12-26T01:59:15.479Z,102014.78
2018-12-26T02:01:45.466Z,102017.34
2018-12-26T02:04:15.315Z,102006.45
2018-12-26T02:06:45.068Z,101990.70
2018-12-26T02:09:15.263Z,102004.28
2018-12-26T02:11:44.789Z,102019.58
2018-12-26T02:14:14.768Z,102017.85
2018-12-26T02:16:44.474Z,102016.52
2018-12-26T02:19:14.773Z,102001.63
2018-12-26T02:21:44.517Z,102005.17
2018-12-26T02:24:15.056Z,101998.63
2018-12-26T02:26:44.830Z,101998.72
2018-12-26T02:29:14.524Z,101990.03
2018-12-26T02:31:44.551Z,101989.14
2018-12-26T02:34:14.964Z,101995.27
2018-12-26T02:36:44.794Z,101989.11
2018-12-26T02:39:14.600Z,101985.56
2018-12-26T02:41:44.761Z,101967.78
2018-12-26T02:44:14.866Z,101976.97
2018-12-26T02:46:44.851Z,101958.28
2018-12-26T02:49:14.885Z,101959.16
2018-12-26T02:51:45.293Z,101954.27
2018-12-26T02:54:14.768Z,101938.27
2018-12-26T02:56:47.843Z,101950.85
2018-12-26T02:59:16.613Z,101956.12
2018-12-26T03:01:46.227Z,101945.56
2018-12-26T03:04:16.333Z,101949.16
2018-12-26T03:06:46.046Z,101946.06
2018-12-26T03:09:15.532Z,101939.11
2018-12-26T03:11:45.291Z,101936.96
2018-12-26T03:14:14.898Z,101929.53
2018-12-26T03:16:45.416Z,101926.05
2018-12-26T03:19:14.937Z,101926.02
2018-12-26T03:21:45.395Z,101923.41
2018-12-26T03:24:15.150Z,101928.64
2018-12-26T03:26:45.250Z,101937.83
2018-12-26T03:29:14.931Z,101924.68
2018-12-26T03:31:44.801Z,101919.00
2018-12-26T03:34:14.751Z,101914.22
2018-12-26T03:36:45.212Z,101903.33
2018-12-26T03:39:15.372Z,101899.85
2018-12-26T03:41:45.149Z,101902.88
2018-12-26T03:44:14.954Z,101913.73
2018-12-26T03:46:45.462Z,101914.53
2018-12-26T03:49:15.450Z,101908.50
2018-12-26T03:51:44.938Z,101911.56
2018-12-26T03:54:14.880Z,101914.21
2018-12-26T03:56:44.880Z,101915.61
2018-12-26T03:59:15.186Z,101907.26
2018-12-26T04:01:45.521Z,101912.52
2018-12-26T04:04:15.375Z,101914.66
2018-12-26T04:06:44.990Z,101907.26
2018-12-26T04:09:15.387Z,101915.61
2018-12-26T04:11:45.022Z,101916.12
2018-12-26T04:14:14.893Z,101926.58
2018-12-26T04:16:44.933Z,101917.39
2018-12-26T04:19:15.117Z,101903.84
2018-12-26T04:21:45.284Z,101913.02
2018-12-26T04:24:15.066Z,101920.92
2018-12-26T04:26:45.033Z,101906.98
2018-12-26T04:29:15.281Z,101920.12
2018-12-26T04:31:45.360Z,101911.87
2018-12-26T04:34:15.382Z,101916.69
2018-12-26T04:36:45.623Z,101907.93
2018-12-26T04:39:15.128Z,101911.53
2018-12-26T04:41:45.201Z,101907.53
2018-12-26T04:44:15.150Z,101913.19
2018-12-26T04:46:45.419Z,101912.81
2018-12-26T04:49:15.950Z,101894.06
2018-12-26T04:51:45.760Z,101908.91
2018-12-26T04:54:15.273Z,101900.64
2018-12-26T04:56:45.459Z,101908.02
2018-12-26T04:59:15.430Z,101901.48
2018-12-26T05:01:45.150Z,101903.20
2018-12-26T05:04:15.232Z,101912.69
2018-12-26T05:06:45.769Z,101909.75
2018-12-26T05:09:15.261Z,101904.61
2018-12-26T05:11:45.128Z,101908.47
2018-12-26T05:14:15.140Z,101903.70
2018-12-26T05:16:45.251Z,101912.48
2018-12-26T05:19:15.428Z,101908.55
2018-12-26T05:21:45.499Z,101906.36
2018-12-26T05:24:15.237Z,101902.40
2018-12-26T05:26:45.319Z,101904.64
2018-12-26T05:29:15.158Z,101908.50
2018-12-26T05:31:45.533Z,101908.95
2018-12-26T05:34:15.208Z,101908.13
2018-12-26T05:36:45.259Z,101909.94
2018-12-26T05:39:15.186Z,101889.42
2018-12-26T05:41:45.515Z,101894.27
2018-12-26T05:44:15.240Z,101897.27
2018-12-26T05:46:45.200Z,101893.80
2018-12-26T05:49:15.589Z,101906.85
2018-12-26T05:51:45.907Z,101906.86
2018-12-26T05:54:15.398Z,101911.22
2018-12-26T05:56:45.215Z,101910.37
2018-12-26T05:59:15.243Z,101911.65
2018-12-26T06:01:45.687Z,101929.03
2018-12-26T06:04:15.232Z,101926.83
2018-12-26T06:06:45.219Z,101928.66
2018-12-26T06:09:15.549Z,101916.00
2018-12-26T06:11:45.818Z,101918.64
2018-12-26T06:14:15.314Z,101905.59
2018-12-26T06:16:45.289Z,101918.17
2018-12-26T06:19:15.244Z,101919.05
2018-12-26T06:21:45.515Z,101924.27
2018-12-26T06:24:15.525Z,101924.30
2018-12-26T06:26:45.644Z,101915.13
2018-12-26T06:29:15.239Z,101908.11
2018-12-26T06:31:45.259Z,101912.45
2018-12-26T06:34:15.269Z,101902.86
2018-12-26T06:36:45.283Z,101915.07
2018-12-26T06:39:15.311Z,101914.16
2018-12-26T06:41:45.428Z,101922.92
2018-12-26T06:44:15.651Z,101913.78
2018-12-26T06:46:45.581Z,101915.11
2018-12-26T06:49:15.580Z,101927.31
2018-12-26T06:51:45.342Z,101919.86
2018-12-26T06:54:15.625Z,101915.45
2018-12-26T06:56:45.348Z,101921.64
2018-12-26T06:59:15.995Z,101922.47
2018-12-26T07:01:45.768Z,101926.45
2018-12-26T07:04:15.970Z,101932.12
2018-12-26T07:06:45.761Z,101935.16
2018-12-26T07:09:16.571Z,101936.05
2018-12-26T07:11:46.340Z,101931.71
2018-12-26T07:14:16.236Z,101932.53
2018-12-26T07:16:45.727Z,101936.05
2018-12-26T07:19:15.664Z,101934.75
2018-12-26T07:21:45.367Z,101931.69
2018-12-26T07:24:15.466Z,101932.57
2018-12-26T07:26:45.357Z,101927.77
2018-12-26T07:29:15.666Z,101928.61
2018-12-26T07:31:45.552Z,101921.67
2018-12-26T07:34:15.691Z,101941.72
2018-12-26T07:36:46.009Z,101937.74
2018-12-26T07:39:15.794Z,101939.96
2018-12-26T07:41:45.538Z,101938.61
2018-12-26T07:44:15.436Z,101945.58
2018-12-26T07:46:45.758Z,101932.55
2018-12-26T07:49:15.431Z,101933.87
2018-12-26T07:51:46.223Z,101934.75
2018-12-26T07:54:17.196Z,101936.03
2018-12-26T07:56:47.024Z,101945.18
2018-12-26T07:59:17.463Z,101949.94
2018-12-26T08:01:47.339Z,101954.28
2018-12-26T08:04:16.842Z,101944.67
2018-12-26T08:06:46.341Z,101953.84
2018-12-26T08:09:16.737Z,101959.09
2018-12-26T08:11:46.336Z,101950.77
2018-12-26T08:14:16.455Z,101953.38
2018-12-26T08:16:46.169Z,101954.26
2018-12-26T08:19:15.885Z,101952.95
2018-12-26T08:21:45.652Z,101956.06
2018-12-26T08:24:16.049Z,101959.91
2018-12-26T08:26:46.037Z,101953.38
2018-12-26T08:29:15.882Z,101956.02
2018-12-26T08:31:45.529Z,101955.97
2018-12-26T08:34:15.488Z,101956.81
2018-12-26T08:36:46.405Z,101946.02
2018-12-26T08:39:16.300Z,101940.37
2018-12-26T08:41:46.191Z,101959.06
2018-12-26T08:44:15.832Z,101956.02
2018-12-26T08:46:45.742Z,101958.11
2018-12-26T08:49:15.874Z,101952.94
2018-12-26T08:51:46.085Z,101959.03
2018-12-26T08:54:16.154Z,101946.42
2018-12-26T08:56:46.139Z,101951.63
2018-12-26T08:59:15.928Z,101949.03
2018-12-26T09:01:46.165Z,101949.06
2018-12-26T09:04:17.267Z,101951.70
2018-12-26T09:06:47.271Z,101955.61
2018-12-26T09:09:16.772Z,101947.71
2018-12-26T09:11:46.469Z,101944.27
2018-12-26T09:14:16.251Z,101952.99
2018-12-26T09:16:45.779Z,101945.97
2018-12-26T09:19:15.904Z,101953.38
2018-12-26T09:21:46.256Z,101948.17
2018-12-26T09:24:16.069Z,101955.99
2018-12-26T09:26:45.969Z,101954.70
2018-12-26T09:29:15.688Z,101952.94
2018-12-26T09:31:46.062Z,101953.37
2018-12-26T09:34:15.785Z,101958.59
2018-12-26T09:36:45.776Z,101948.53
2018-12-26T09:39:16.323Z,101954.25
2018-12-26T09:41:45.844Z,101948.55
2018-12-26T09:44:16.201Z,101938.03
2018-12-26T09:46:47.226Z,101940.64
2018-12-26T09:49:17.028Z,101941.97
2018-12-26T09:51:52.664Z,101946.77
2018-12-26T09:54:22.420Z,101940.23
2018-12-26T09:56:52.801Z,101947.51
2018-12-26T09:59:22.360Z,101949.78
2018-12-26T10:01:51.851Z,101948.47
2018-12-26T10:04:21.653Z,101952.32
2018-12-26T10:06:51.207Z,101952.86
2018-12-26T10:09:21.287Z,101952.02
2018-12-26T10:11:51.336Z,101950.66
2018-12-26T10:14:20.845Z,101947.59
2018-12-26T10:16:51.194Z,101947.23
2018-12-26T10:19:20.997Z,101928.03
2018-12-26T10:21:50.981Z,101949.78
2018-12-26T10:24:20.625Z,101942.36
2018-12-26T10:26:51.495Z,101940.64
2018-12-26T10:29:21.628Z,101952.90
2018-12-26T10:31:51.261Z,101940.64
2018-12-26T10:34:21.154Z,101928.83
2018-12-26T10:36:51.329Z,101928.83
2018-12-26T10:39:21.442Z,101937.98
2018-12-26T10:41:51.270Z,101939.68
2018-12-26T10:44:20.758Z,101934.48
2018-12-26T10:46:50.565Z,101935.81
2018-12-26T10:49:20.071Z,101933.64
2018-12-26T10:51:49.616Z,101932.75
2018-12-26T10:54:19.396Z,101932.30
2018-12-26T10:56:49.252Z,101932.28
2018-12-26T10:59:18.768Z,101926.21
2018-12-26T11:01:48.253Z,101920.90
2018-12-26T11:04:17.890Z,101881.41
2018-12-26T11:06:47.391Z,101923.98
2018-12-26T11:09:17.219Z,101920.88
2018-12-26T11:11:46.993Z,101919.15
2018-12-26T11:14:16.829Z,101917.81
2018-12-26T11:16:46.595Z,101916.06
2018-12-26T11:19:16.451Z,101921.31
2018-12-26T11:21:45.998Z,101920.45
2018-12-26T11:24:16.268Z,101915.13
2018-12-26T11:26:46.968Z,101925.66
2018-12-26T11:29:19.074Z,101917.81
2018-12-26T11:31:48.797Z,101922.20
2018-12-26T11:34:18.341Z,101907.38
2018-12-26T11:36:48.135Z,101912.97
2018-12-26T11:39:18.020Z,101913.86
2018-12-26T11:41:47.588Z,101910.29
2018-12-26T11:44:17.448Z,101911.69
2018-12-26T11:46:50.510Z,101907.28
2018-12-26T11:49:20.346Z,101913.80
2018-12-26T11:51:50.412Z,101916.32
2018-12-26T11:54:21.762Z,101916.73
2018-12-26T11:56:51.324Z,101911.15
2018-12-26T11:59:27.116Z,101912.91
2018-12-26T12:01:52.301Z,101928.19
2018-12-26T12:04:22.172Z,101917.34
2018-12-26T12:06:51.732Z,101916.45
2018-12-26T12:09:21.591Z,101915.97
2018-12-26T12:11:51.205Z,101913.80
2018-12-26T12:14:21.084Z,101912.97
2018-12-26T12:16:51.170Z,101916.50
2018-12-26T12:19:21.313Z,101908.20
2018-12-26T12:21:51.177Z,101903.39
2018-12-26T12:24:20.847Z,101904.77
2018-12-26T12:26:50.789Z,101918.14
2018-12-26T12:29:21.121Z,101911.72
2018-12-26T12:31:51.675Z,101918.70
2018-12-26T12:34:21.472Z,101908.63
2018-12-26T12:36:51.043Z,101913.92
2018-12-26T12:39:20.747Z,101905.14
2018-12-26T12:41:50.564Z,101909.45
2018-12-26T12:44:21.571Z,101917.66
2018-12-26T12:46:51.925Z,101909.91
2018-12-26T12:49:21.452Z,101909.30
2018-12-26T12:51:50.972Z,101907.70
2018-12-26T12:54:20.488Z,101903.80
2018-12-26T12:56:50.544Z,101908.59
2018-12-26T12:59:20.188Z,101913.38
2018-12-26T13:01:49.767Z,101916.00
2018-12-26T13:04:19.340Z,101921.27
2018-12-26T13:06:48.836Z,101912.05
2018-12-26T13:09:18.316Z,101929.08
2018-12-26T13:11:47.890Z,101916.00
2018-12-26T13:14:17.698Z,101922.92
2018-12-26T13:16:47.529Z,101919.86
2018-12-26T13:19:17.793Z,101931.64
2018-12-26T13:21:47.892Z,101928.61
2018-12-26T13:24:17.372Z,101942.59
2018-12-26T13:26:47.193Z,101932.85
2018-12-26T13:29:16.982Z,101938.92
2018-12-26T13:31:47.207Z,101936.37
2018-12-26T13:34:17.029Z,101925.83
2018-12-26T13:36:46.819Z,101928.06
2018-12-26T13:39:16.657Z,101926.76
2018-12-26T13:41:46.697Z,101923.79
2018-12-26T13:44:16.678Z,101923.76
2018-12-26T13:46:46.474Z,101914.63
2018-12-26T13:49:16.463Z,101928.45
2018-12-26T13:51:46.396Z,101932.79
2018-12-26T13:54:16.732Z,101936.27
2018-12-26T13:56:46.477Z,101934.13
2018-12-26T13:59:17.243Z,101932.34
2018-12-26T14:01:46.748Z,101935.06
2018-12-26T14:04:16.736Z,101932.03
2018-12-26T14:06:46.778Z,101930.72
2018-12-26T14:09:16.769Z,101943.36
2018-12-26T14:11:46.471Z,101935.92
2018-12-26T14:14:16.845Z,101933.65
2018-12-26T14:16:46.440Z,101938.92
2018-12-26T14:19:16.947Z,101937.58
2018-12-26T14:21:46.716Z,101938.05
2018-12-26T14:24:16.825Z,101934.13
2018-12-26T14:26:47.159Z,101929.79
2018-12-26T14:29:16.926Z,101937.51
2018-12-26T14:31:46.782Z,101933.17
2018-12-26T14:34:16.923Z,101931.45
2018-12-26T14:36:46.869Z,101921.91
2018-12-26T14:39:17.669Z,101934.06
2018-12-26T14:41:47.660Z,101935.85
2018-12-26T14:44:17.922Z,101933.65
2018-12-26T14:46:47.760Z,101930.13
2018-12-26T14:49:17.311Z,101931.09
2018-12-26T14:51:47.216Z,101929.75
2018-12-26T14:54:16.770Z,101933.75
2018-12-26T14:56:46.635Z,101933.69
2018-12-26T14:59:17.154Z,101931.09
2018-12-26T15:01:47.330Z,101917.56
2018-12-26T15:04:17.299Z,101928.93
2018-12-26T15:06:48.007Z,101926.69
2018-12-26T15:09:17.768Z,101924.48
2018-12-26T15:11:47.439Z,101931.89
2018-12-26T15:14:20.275Z,101928.09
2018-12-26T15:16:49.775Z,101928.92
2018-12-26T15:19:20.508Z,101931.52
2018-12-26T15:21:50.329Z,101926.79
2018-12-26T15:24:20.412Z,101929.79
2018-12-26T15:26:49.971Z,101929.85
2018-12-26T15:29:19.774Z,101931.55
2018-12-26T15:31:49.353Z,101934.13
2018-12-26T15:34:19.754Z,101931.61
2018-12-26T15:36:49.300Z,101932.89
2018-12-26T15:39:19.142Z,101940.19
2018-12-26T15:41:48.680Z,101936.69
2018-12-26T15:44:18.676Z,101926.72
2018-12-26T15:46:48.197Z,101935.89
2018-12-26T15:49:17.719Z,101934.03
2018-12-26T15:51:47.775Z,101933.27
2018-12-26T15:54:17.306Z,101929.79
2018-12-26T15:56:47.408Z,101930.20
2018-12-26T15:59:16.930Z,101939.37
2018-12-26T16:01:47.153Z,101932.34
2018-12-26T16:04:17.039Z,101936.61
2018-12-26T16:06:47.353Z,101941.50
2018-12-26T16:09:17.382Z,101936.75
2018-12-26T16:11:46.947Z,101873.27
2018-12-26T16:14:16.831Z,101925.83
2018-12-26T16:16:46.840Z,101920.25
2018-12-26T16:19:17.349Z,101922.00
2018-12-26T16:21:47.125Z,101906.78
2018-12-26T16:24:16.838Z,101923.28
2018-12-26T16:26:46.854Z,101926.28
2018-12-26T16:29:17.098Z,101921.04
2018-12-26T16:31:46.795Z,101924.11
2018-12-26T16:34:17.172Z,101930.23
2018-12-26T16:36:47.083Z,101917.63
2018-12-26T16:39:16.876Z,101932.38
2018-12-26T16:41:47.083Z,101932.79
2018-12-26T16:44:17.172Z,101932.75
2018-12-26T16:46:47.046Z,101931.52
2018-12-26T16:49:17.199Z,101934.55
2018-12-26T16:51:47.610Z,101931.03
2018-12-26T16:54:17.434Z,101930.69
2018-12-26T16:56:47.314Z,101931.06
2018-12-26T16:59:17.521Z,101934.55
2018-12-26T17:01:47.287Z,101934.99
2018-12-26T17:04:17.754Z,101927.48
2018-12-26T17:06:48.676Z,101933.20
2018-12-26T17:09:18.297Z,101928.89
2018-12-26T17:11:48.191Z,101934.55
2018-12-26T17:14:17.955Z,101931.03
2018-12-26T17:16:47.767Z,101927.14
2018-12-26T17:19:17.504Z,101932.75
2018-12-26T17:21:47.686Z,101937.09
2018-12-26T17:24:17.526Z,101940.16
2018-12-26T17:26:47.429Z,101937.95
2018-12-26T17:29:17.145Z,101944.05
2018-12-26T17:31:47.483Z,101937.88
2018-12-26T17:34:17.202Z,101947.91
2018-12-26T17:36:47.146Z,101943.98
2018-12-26T17:39:17.202Z,101946.94
2018-12-26T17:41:47.219Z,101933.12
2018-12-26T17:44:17.484Z,101943.53
2018-12-26T17:46:47.224Z,101938.33
2018-12-26T17:49:17.308Z,101935.37
2018-12-26T17:51:47.298Z,101941.40
2018-12-26T17:54:45.940Z,101940.58
2018-12-26T17:57:23.682Z,101946.67
2018-12-26T18:00:46.748Z,101944.43
2018-12-26T18:03:17.769Z,101942.75
2018-12-26T18:05:47.571Z,101941.47
2018-12-26T18:08:17.260Z,101945.33
2018-12-26T18:10:47.549Z,101942.78
2018-12-26T18:13:17.324Z,101949.26
2018-12-26T18:15:47.620Z,101949.29
2018-12-26T18:18:17.246Z,101947.64
2018-12-26T18:20:47.284Z,101950.22
2018-12-26T18:23:19.758Z,101936.64
2018-12-26T18:25:49.558Z,101950.22
2018-12-26T18:28:19.302Z,101957.56
2018-12-26T18:30:49.101Z,101955.42
2018-12-26T18:33:19.243Z,101957.08
2018-12-26T18:35:48.779Z,101957.08
2018-12-26T18:38:18.608Z,101959.41
2018-12-26T18:40:48.156Z,101960.22
2018-12-26T18:43:17.662Z,101955.42
2018-12-26T18:45:47.618Z,101959.83
2018-12-26T18:48:18.158Z,101960.66
2018-12-26T18:50:47.702Z,101953.59
2018-12-26T18:53:17.650Z,101959.35
2018-12-26T18:55:47.568Z,101957.59
2018-12-26T18:58:17.703Z,101956.63
2018-12-26T19:00:48.002Z,101957.14
2018-12-26T19:03:17.883Z,101957.00
2018-12-26T19:05:47.501Z,101958.84
2018-12-26T19:08:17.415Z,101958.45
2018-12-26T19:10:47.502Z,101955.08
2018-12-26T19:13:17.738Z,101955.08
2018-12-26T19:15:47.514Z,101955.94
2018-12-26T19:18:17.750Z,101953.28
2018-12-26T19:20:47.826Z,101955.42
2018-12-26T19:23:18.086Z,101950.56
2018-12-26T19:25:47.641Z,101955.42
2018-12-26T19:28:17.500Z,101953.67
2018-12-26T19:30:47.977Z,101951.08
2018-12-26T19:33:19.517Z,101943.61
2018-12-26T19:35:49.043Z,101947.16
2018-12-26T19:38:18.819Z,101943.67
2018-12-26T19:40:48.630Z,101944.98
2018-12-26T19:43:18.182Z,101941.02
2018-12-26T19:45:48.295Z,101941.88
2018-12-26T19:48:18.514Z,101939.37
2018-12-26T19:50:48.276Z,101939.30
2018-12-26T19:53:17.840Z,101938.81
2018-12-26T19:55:47.625Z,101945.43
2018-12-26T19:58:17.714Z,101933.65
2018-12-26T20:00:47.506Z,101940.23
2018-12-26T20:03:17.341Z,101928.79
2018-12-26T20:05:47.027Z,101935.50
2018-12-26T20:08:16.652Z,101933.69
2018-12-26T20:10:46.441Z,101934.51
2018-12-26T20:13:16.292Z,101930.62
2018-12-26T20:15:45.789Z,101928.48
2018-12-26T20:18:16.780Z,101921.04
2018-12-26T20:20:46.523Z,101915.73
2018-12-26T20:23:16.503Z,101920.94
2018-12-26T20:25:46.625Z,101917.87
2018-12-26T20:28:16.416Z,101919.66
2018-12-26T20:30:46.223Z,101921.27
2018-12-26T20:33:16.116Z,101921.87
2018-12-26T20:35:45.754Z,101918.35
2018-12-26T20:38:15.290Z,101919.73
2018-12-26T20:40:45.179Z,101917.01
2018-12-26T20:43:14.950Z,101906.08
2018-12-26T20:45:44.549Z,101907.47
2018-12-26T20:48:14.277Z,101904.44
2018-12-26T20:50:43.957Z,101904.70
2018-12-26T20:53:13.952Z,101906.94
2018-12-26T20:55:43.504Z,101904.29
2018-12-26T20:58:13.299Z,101898.72
2018-12-26T21:00:42.911Z,101896.55
2018-12-26T21:03:12.818Z,101895.69
2018-12-26T21:05:42.628Z,101895.69
2018-12-26T21:08:12.147Z,101896.99
2018-12-26T21:10:41.694Z,101902.61
2018-12-26T21:13:11.266Z,101899.02
2018-12-26T21:15:41.077Z,101902.00
2018-12-26T21:18:13.342Z,101907.69
2018-12-26T21:20:42.900Z,101903.77
2018-12-26T21:23:14.042Z,101896.27
2018-12-26T21:25:46.734Z,101902.91
2018-12-26T21:28:16.060Z,101901.63
2018-12-26T21:30:45.910Z,101899.87
2018-12-26T21:33:16.095Z,101898.97
2018-12-26T21:35:45.955Z,101901.67
2018-12-26T21:38:15.744Z,101898.59
2018-12-26T21:40:45.987Z,101889.39
2018-12-26T21:43:15.518Z,101886.85
2018-12-26T21:45:45.247Z,101888.16
2018-12-26T21:48:16.495Z,101894.95
2018-12-26T21:50:46.414Z,101898.52
2018-12-26T21:53:16.390Z,101891.23
2018-12-26T21:55:46.073Z,101889.03
2018-12-26T21:58:16.174Z,101886.85
2018-12-26T22:00:46.030Z,101890.30
2018-12-26T22:03:15.750Z,101888.98
2018-12-26T22:05:45.316Z,101889.44
2018-12-26T22:08:14.840Z,101891.69
2018-12-26T22:10:45.019Z,101883.22
2018-12-26T22:13:14.525Z,101880.76
2018-12-26T22:15:44.140Z,101884.16
2018-12-26T22:18:13.987Z,101886.29
2018-12-26T22:20:43.540Z,101888.05
2018-12-26T22:23:13.406Z,101886.78
2018-12-26T22:25:43.774Z,101885.95
2018-12-26T22:28:13.588Z,101887.19
2018-12-26T22:30:43.431Z,101883.34
2018-12-26T22:33:13.366Z,101885.05
2018-12-26T22:35:43.888Z,101884.23
2018-12-26T22:38:13.743Z,101876.75
2018-12-26T22:40:43.332Z,101878.05
2018-12-26T22:43:13.005Z,101827.23
2018-12-26T22:45:44.112Z,101868.85
2018-12-26T22:48:14.100Z,101864.96
2018-12-26T22:50:43.647Z,101865.37
2018-12-26T22:53:13.233Z,101872.73
2018-12-26T22:55:43.024Z,101860.09
2018-12-26T22:58:12.542Z,101868.36
2018-12-26T23:00:46.163Z,101863.16
2018-12-26T23:03:15.690Z,101857.34
2018-12-26T23:05:45.656Z,101853.14
2018-12-26T23:08:15.146Z,101857.02
2018-12-26T23:10:44.974Z,101866.16
2018-12-26T23:13:16.092Z,101862.30
2018-12-26T23:15:45.897Z,101864.92
2018-12-26T23:18:15.711Z,101855.80
2018-12-26T23:20:45.469Z,101851.73
2018-12-26T23:23:15.513Z,101856.53
2018-12-26T23:25:45.057Z,101852.23
2018-12-26T23:28:15.123Z,101849.57
2018-12-26T23:30:44.652Z,101856.98
2018-12-26T23:33:14.422Z,101849.58
2018-12-26T23:35:44.057Z,101844.38
2018-12-26T23:38:13.576Z,101851.28
2018-12-26T23:40:43.087Z,101844.33
2018-12-26T23:43:12.960Z,101850.52
2018-12-26T23:45:42.671Z,101839.09
2018-12-26T23:48:12.455Z,101837.33
2018-12-26T23:50:42.418Z,101842.57
2018-12-26T23:53:12.158Z,101839.50
2018-12-26T23:55:41.673Z,101849.98
2018-12-26T23:58:11.231Z,101852.19
